Terminal Aerodrome Forecast
Issued by NWS Missoula, MT

Home | Current Version | Previous Version | Text Only | Print | Product List | Glossary On
Versions: 1 2 3 4 5 6 7 8 9 10 11 12 13
000
FTUS45 KMSO 301100
TAFBTM
TAF
KBTM 301120Z 3012/3112 15005KT P6SM SCT100
     FM302000 13009G18KT P6SM VCTS BKN100CB
     FM310000 08015G25KT P6SM VCTS BKN100CB
     FM310200 15006KT P6SM SCT150=

USA.gov is the U.S. government's official web portal to all federal, state and local government web resources and services.